Current Weather

München

München, Germany (EDDM)

Report from: Saturday, June 22, 2024 1:50 AM CEST
Current time: Saturday, June 22, 2024 2:29 AM CEST

Nearby weather – Weather history – Daily summaries
Weather forecast

Temperature13.0°C (55.4°F)
Dew point13.0°C (55.4°F)
Winds 3 kts (1.5 m/s, 3.5 mph) Vrb
Winds variableWinds variable from South-Southeast (160°) to West (270°)
Visibility6.2 mi. (10 km)
Clouds Few clouds 4,800 ft. (1,463 m)
Altimeter30.00 in.Hg (1016 mB)
Relative humidity100 %
Density altitude-122 ft. (-37 m)
Remarks Fully automated report
No significant changes expected in the next two hours
Flight conditions Visual Meteorological Conditions
Raw dataEDDM 212350Z AUTO 21003KT 160V270 9999 FEW048 13/13 Q1016 NOSIG
An error has occurred. This application may no longer respond until reloaded. Reload 🗙